Eaton, Indiana
Current Conditions -  °F | °C
As of 8:53 PM on Monday 20 Oct 2014 (Local Time) from KMIE Reporting Station
Few Clouds Few Clouds  
Wind Chill: 54°   Ceiling: Unl
Heat Index: 54°   Visibility: 10mi
Dew Point: 48°   Wind: 6mph
Humidity: 80%   Direction: 330°NNW
Pressure: 29.89"   Gusts: NA
Location:  40.34°N, 85.35°W
Report Text: KMIE 210053Z 33005KT 10SM FEW070 FEW085 12/09 A2989 RMK AO2 SLP119 T01220089
Loading
Personal Weather Stations






























Interactive Weather Map
Tropical Storm Tracking
New forecast layout! Learn more

10-Day Weather Forecast

Advertisements
Track Severe Weather on mobile